RYR5X LEMH-LIPH
Flight info
| Callsign | RYR5X |
|---|---|
| Flight time | 1h 26m |
| Altitude | 36000 |
| Route | MORSS M603 BAVON DCT ORKUM DCT ELSAG DCT ALG DCT ROMPO DCT BATOX DCT MAMAR DCT NUKNI DCT BIKTU DCT SUKOM DCT LUMAV DCT ROVIG |
| Aircraft | B38M/M-SADE3FGIJ1LRWY/SB1 |
Departure
| Time | 2026-05-04 14:32 |
|---|---|
| Airport | Menorca Airport (LEMH) |
Arrival
| Time | 2026-05-04 15:58 |
|---|---|
| Airport | Treviso Airport (LIPH) |
| Time | Latitude | Longitude | Altitude | Speed | Heading |
|---|---|---|---|---|---|
| 2026-05-04 14:10 | 39.86469 | 4.22394 | 289 ft | 0 kts | 99° |
| 2026-05-04 14:23 | 39.86473 | 4.22364 | 293 ft | 3 kts | 99° |
| 2026-05-04 14:23 | 39.86475 | 4.22337 | 293 ft | 4 kts | 84° |
| 2026-05-04 14:23 | 39.86466 | 4.22317 | 294 ft | 4 kts | 10° |
| 2026-05-04 14:24 | 39.86443 | 4.22312 | 292 ft | 2 kts | 9° |
| 2026-05-04 14:24 | 39.86441 | 4.22312 | 292 ft | 0 kts | 9° |
| 2026-05-04 14:27 | 39.86450 | 4.22313 | 293 ft | 3 kts | 8° |
| 2026-05-04 14:28 | 39.86494 | 4.22322 | 293 ft | 11 kts | 8° |
| 2026-05-04 14:28 | 39.86599 | 4.22344 | 292 ft | 19 kts | 9° |
| 2026-05-04 14:28 | 39.86734 | 4.22372 | 294 ft | 20 kts | 9° |
| 2026-05-04 14:28 | 39.86840 | 4.22394 | 296 ft | 11 kts | 9° |
| 2026-05-04 14:29 | 39.86924 | 4.22288 | 301 ft | 9 kts | 286° |
| 2026-05-04 14:29 | 39.87055 | 4.22267 | 306 ft | 14 kts | 9° |
| 2026-05-04 14:30 | 39.87167 | 4.22291 | 309 ft | 18 kts | 9° |
| 2026-05-04 14:30 | 39.87305 | 4.22320 | 313 ft | 21 kts | 9° |
| 2026-05-04 14:30 | 39.87374 | 4.22122 | 314 ft | 12 kts | 250° |
| 2026-05-04 14:31 | 39.87320 | 4.22083 | 312 ft | 11 kts | 186° |
| 2026-05-04 14:31 | 39.86940 | 4.22004 | 306 ft | 73 kts | 189° |
| 2026-05-04 14:32 | 39.85269 | 4.21674 | 466 ft | 150 kts | 192° |
| 2026-05-04 14:32 | 39.84192 | 4.21491 | 897 ft | 165 kts | 192° |
| 2026-05-04 14:32 | 39.83038 | 4.21256 | 1496 ft | 167 kts | 192° |
| 2026-05-04 14:32 | 39.81870 | 4.20989 | 2229 ft | 179 kts | 193° |
| 2026-05-04 14:33 | 39.80556 | 4.20685 | 2811 ft | 203 kts | 193° |
| 2026-05-04 14:33 | 39.79123 | 4.20364 | 3616 ft | 217 kts | 193° |
| 2026-05-04 14:33 | 39.77584 | 4.20027 | 4461 ft | 229 kts | 193° |
| 2026-05-04 14:33 | 39.75978 | 4.19810 | 5496 ft | 236 kts | 178° |
| 2026-05-04 14:34 | 39.74475 | 4.20672 | 6520 ft | 251 kts | 142° |
| 2026-05-04 14:34 | 39.73563 | 4.22666 | 7420 ft | 268 kts | 106° |
| 2026-05-04 14:34 | 39.73662 | 4.25113 | 8329 ft | 280 kts | 70° |
| 2026-05-04 14:34 | 39.74777 | 4.27187 | 9237 ft | 286 kts | 40° |
| 2026-05-04 14:35 | 39.76353 | 4.28906 | 9871 ft | 304 kts | 45° |
| 2026-05-04 14:35 | 39.77653 | 4.31175 | 10380 ft | 323 kts | 59° |
| 2026-05-04 14:35 | 39.79026 | 4.33533 | 10879 ft | 339 kts | 42° |
| 2026-05-04 14:35 | 39.80903 | 4.35441 | 11659 ft | 345 kts | 39° |
| 2026-05-04 14:36 | 39.82459 | 4.37823 | 12522 ft | 348 kts | 62° |
| 2026-05-04 14:36 | 39.83328 | 4.40764 | 13362 ft | 351 kts | 74° |
| 2026-05-04 14:36 | 39.84219 | 4.43765 | 14131 ft | 356 kts | 67° |
| 2026-05-04 14:36 | 39.85255 | 4.46680 | 14823 ft | 362 kts | 64° |
| 2026-05-04 14:37 | 39.86391 | 4.49634 | 15513 ft | 367 kts | 63° |
| 2026-05-04 14:37 | 39.87590 | 4.52615 | 16184 ft | 373 kts | 62° |
| 2026-05-04 14:37 | 39.88819 | 4.55613 | 16843 ft | 378 kts | 61° |
| 2026-05-04 14:37 | 39.90082 | 4.58656 | 17511 ft | 383 kts | 60° |
| 2026-05-04 14:38 | 39.91346 | 4.61682 | 18152 ft | 388 kts | 60° |
| 2026-05-04 14:38 | 39.92647 | 4.64794 | 18706 ft | 393 kts | 60° |
| 2026-05-04 14:38 | 39.93967 | 4.67949 | 19243 ft | 398 kts | 60° |
| 2026-05-04 14:38 | 39.95300 | 4.71139 | 19789 ft | 402 kts | 60° |
| 2026-05-04 14:39 | 39.96646 | 4.74361 | 20319 ft | 407 kts | 61° |
| 2026-05-04 14:39 | 39.97938 | 4.77682 | 20858 ft | 412 kts | 70° |
| 2026-05-04 14:39 | 39.98749 | 4.81233 | 21378 ft | 415 kts | 75° |
| 2026-05-04 14:40 | 40.00429 | 4.88543 | 22413 ft | 424 kts | 75° |
| 2026-05-04 14:40 | 40.01279 | 4.92251 | 22921 ft | 429 kts | 75° |
| 2026-05-04 14:40 | 40.02139 | 4.96005 | 23462 ft | 433 kts | 75° |
| 2026-05-04 14:40 | 40.03007 | 4.99800 | 23913 ft | 437 kts | 75° |
| 2026-05-04 14:41 | 40.03879 | 5.03617 | 24362 ft | 440 kts | 75° |
| 2026-05-04 14:41 | 40.04745 | 5.07420 | 24800 ft | 443 kts | 75° |
| 2026-05-04 14:41 | 40.06520 | 5.15228 | 25682 ft | 450 kts | 75° |
| 2026-05-04 14:42 | 40.08299 | 5.23085 | 26531 ft | 456 kts | 75° |
| 2026-05-04 14:42 | 40.09201 | 5.27080 | 26949 ft | 459 kts | 75° |
| 2026-05-04 14:42 | 40.10108 | 5.31102 | 27360 ft | 462 kts | 75° |
| 2026-05-04 14:43 | 40.11016 | 5.35139 | 27755 ft | 465 kts | 75° |
| 2026-05-04 14:43 | 40.11936 | 5.39233 | 28163 ft | 468 kts | 75° |
| 2026-05-04 14:43 | 40.12841 | 5.43271 | 28552 ft | 471 kts | 75° |
| 2026-05-04 14:43 | 40.13763 | 5.47391 | 28931 ft | 474 kts | 75° |
| 2026-05-04 14:44 | 40.14694 | 5.51555 | 29312 ft | 477 kts | 75° |
| 2026-05-04 14:44 | 40.15625 | 5.55732 | 29686 ft | 480 kts | 75° |
| 2026-05-04 14:44 | 40.16561 | 5.59937 | 30042 ft | 483 kts | 75° |
| 2026-05-04 14:44 | 40.17501 | 5.64172 | 30362 ft | 486 kts | 76° |
| 2026-05-04 14:45 | 40.18444 | 5.68425 | 30689 ft | 488 kts | 76° |
| 2026-05-04 14:45 | 40.19391 | 5.72705 | 31017 ft | 490 kts | 76° |
| 2026-05-04 14:45 | 40.20340 | 5.77000 | 31337 ft | 492 kts | 76° |
| 2026-05-04 14:45 | 40.21276 | 5.81249 | 31643 ft | 494 kts | 76° |
| 2026-05-04 14:46 | 40.22231 | 5.85590 | 31954 ft | 496 kts | 76° |
| 2026-05-04 14:46 | 40.23187 | 5.89943 | 32258 ft | 498 kts | 76° |
| 2026-05-04 14:46 | 40.24143 | 5.94306 | 32565 ft | 500 kts | 76° |
| 2026-05-04 14:46 | 40.25105 | 5.98698 | 32860 ft | 502 kts | 76° |
| 2026-05-04 14:47 | 40.26067 | 6.03101 | 33161 ft | 504 kts | 76° |
| 2026-05-04 14:47 | 40.27022 | 6.07530 | 33458 ft | 506 kts | 76° |
| 2026-05-04 14:47 | 40.27981 | 6.11986 | 33739 ft | 509 kts | 76° |
| 2026-05-04 14:47 | 40.28943 | 6.16466 | 34021 ft | 511 kts | 76° |
| 2026-05-04 14:48 | 40.29896 | 6.20901 | 34268 ft | 513 kts | 76° |
| 2026-05-04 14:48 | 40.30862 | 6.25417 | 34557 ft | 514 kts | 76° |
| 2026-05-04 14:48 | 40.31826 | 6.29924 | 34882 ft | 513 kts | 76° |
| 2026-05-04 14:48 | 40.32785 | 6.34424 | 35204 ft | 513 kts | 76° |
| 2026-05-04 14:49 | 40.33743 | 6.38927 | 35516 ft | 513 kts | 76° |
| 2026-05-04 14:49 | 40.34699 | 6.43431 | 35814 ft | 513 kts | 76° |
| 2026-05-04 14:49 | 40.35653 | 6.47932 | 36099 ft | 513 kts | 76° |
| 2026-05-04 14:49 | 40.36604 | 6.52435 | 36398 ft | 512 kts | 76° |
| 2026-05-04 14:50 | 40.37557 | 6.56952 | 36675 ft | 512 kts | 76° |
| 2026-05-04 14:50 | 40.38187 | 6.59943 | 36854 ft | 512 kts | 76° |
| 2026-05-04 14:50 | 40.39443 | 6.65919 | 37194 ft | 512 kts | 75° |
| 2026-05-04 14:50 | 40.40391 | 6.70444 | 37449 ft | 512 kts | 75° |
| 2026-05-04 14:51 | 40.41016 | 6.73430 | 37626 ft | 512 kts | 75° |
| 2026-05-04 14:51 | 40.41959 | 6.77946 | 37860 ft | 512 kts | 75° |
| 2026-05-04 14:51 | 40.42900 | 6.82457 | 38009 ft | 513 kts | 75° |
| 2026-05-04 14:51 | 40.44146 | 6.88453 | 37982 ft | 512 kts | 75° |
| 2026-05-04 14:52 | 40.45699 | 6.95949 | 38010 ft | 511 kts | 75° |
| 2026-05-04 14:52 | 40.47561 | 7.04966 | 37998 ft | 510 kts | 75° |
| 2026-05-04 14:53 | 40.49405 | 7.13940 | 37992 ft | 510 kts | 75° |
| 2026-05-04 14:53 | 40.51250 | 7.22953 | 37994 ft | 510 kts | 75° |
| 2026-05-04 14:54 | 40.53086 | 7.31965 | 38001 ft | 510 kts | 75° |
| 2026-05-04 14:54 | 40.54906 | 7.40929 | 37998 ft | 510 kts | 75° |
| 2026-05-04 14:55 | 40.56566 | 7.49986 | 37985 ft | 508 kts | 85° |
| 2026-05-04 14:55 | 40.57338 | 7.59243 | 37990 ft | 509 kts | 84° |
| 2026-05-04 14:56 | 40.58145 | 7.68514 | 38005 ft | 509 kts | 84° |
| 2026-05-04 14:56 | 40.58934 | 7.77742 | 38004 ft | 509 kts | 84° |
| 2026-05-04 14:57 | 40.59721 | 7.87034 | 38016 ft | 509 kts | 84° |
| 2026-05-04 14:57 | 40.60498 | 7.96300 | 38028 ft | 509 kts | 84° |
| 2026-05-04 14:58 | 40.61265 | 8.05513 | 38038 ft | 509 kts | 84° |
| 2026-05-04 14:58 | 40.62031 | 8.14805 | 38045 ft | 509 kts | 84° |
| 2026-05-04 14:59 | 40.62901 | 8.24011 | 38030 ft | 508 kts | 74° |
| 2026-05-04 15:00 | 40.66797 | 8.36890 | 38067 ft | 506 kts | 66° |
| 2026-05-04 15:00 | 40.69475 | 8.45471 | 38043 ft | 505 kts | 65° |
| 2026-05-04 15:01 | 40.73495 | 8.58281 | 38042 ft | 505 kts | 65° |
| 2026-05-04 15:01 | 40.76177 | 8.66856 | 38033 ft | 504 kts | 65° |
| 2026-05-04 15:02 | 40.78831 | 8.75372 | 38040 ft | 505 kts | 65° |
| 2026-05-04 15:02 | 40.81495 | 8.83946 | 38036 ft | 504 kts | 65° |
| 2026-05-04 15:03 | 40.84153 | 8.92530 | 38046 ft | 505 kts | 65° |
| 2026-05-04 15:03 | 40.86794 | 9.01082 | 38042 ft | 505 kts | 65° |
| 2026-05-04 15:04 | 40.89445 | 9.09697 | 38060 ft | 506 kts | 65° |
| 2026-05-04 15:04 | 40.92094 | 9.18334 | 38048 ft | 506 kts | 65° |
| 2026-05-04 15:05 | 40.94724 | 9.26935 | 38047 ft | 507 kts | 65° |
| 2026-05-04 15:05 | 40.97365 | 9.35600 | 38052 ft | 507 kts | 65° |
| 2026-05-04 15:06 | 40.99994 | 9.44253 | 38058 ft | 506 kts | 65° |
| 2026-05-04 15:07 | 41.03909 | 9.57193 | 38059 ft | 506 kts | 65° |
| 2026-05-04 15:07 | 41.06525 | 9.65872 | 38049 ft | 505 kts | 65° |
| 2026-05-04 15:08 | 41.09127 | 9.74527 | 38052 ft | 505 kts | 65° |
| 2026-05-04 15:08 | 41.11701 | 9.83193 | 38055 ft | 505 kts | 65° |
| 2026-05-04 15:09 | 41.14274 | 9.91870 | 38056 ft | 505 kts | 65° |
| 2026-05-04 15:09 | 41.16827 | 10.00509 | 38067 ft | 504 kts | 65° |
| 2026-05-04 15:10 | 41.20684 | 10.13508 | 38067 ft | 503 kts | 62° |
| 2026-05-04 15:10 | 41.24690 | 10.20767 | 38074 ft | 490 kts | 45° |
| 2026-05-04 15:11 | 41.26842 | 10.24276 | 38084 ft | 490 kts | 45° |
| 2026-05-04 15:11 | 41.31222 | 10.31259 | 38062 ft | 489 kts | 44° |
| 2026-05-04 15:12 | 41.35617 | 10.38200 | 38075 ft | 489 kts | 44° |
| 2026-05-04 15:12 | 41.39979 | 10.45096 | 38080 ft | 488 kts | 44° |
| 2026-05-04 15:13 | 41.44334 | 10.51998 | 38088 ft | 487 kts | 44° |
| 2026-05-04 15:13 | 41.48698 | 10.58930 | 38083 ft | 486 kts | 44° |
| 2026-05-04 15:14 | 41.53047 | 10.65853 | 38083 ft | 485 kts | 44° |
| 2026-05-04 15:14 | 41.57353 | 10.72723 | 38083 ft | 484 kts | 44° |
| 2026-05-04 15:15 | 41.61676 | 10.79639 | 38089 ft | 483 kts | 44° |
| 2026-05-04 15:15 | 41.65983 | 10.86541 | 38093 ft | 482 kts | 45° |
| 2026-05-04 15:16 | 41.72393 | 10.96847 | 38099 ft | 481 kts | 45° |
| 2026-05-04 15:17 | 41.78988 | 11.06925 | 38074 ft | 468 kts | 31° |
| 2026-05-04 15:17 | 41.84688 | 11.10287 | 38118 ft | 441 kts | 4° |
| 2026-05-04 15:17 | 41.87671 | 11.11148 | 38085 ft | 443 kts | 4° |
| 2026-05-04 15:18 | 41.93728 | 11.12678 | 38104 ft | 442 kts | 2° |
| 2026-05-04 15:19 | 42.02793 | 11.14749 | 38110 ft | 441 kts | 2° |
| 2026-05-04 15:19 | 42.11885 | 11.16790 | 38107 ft | 441 kts | 2° |
| 2026-05-04 15:20 | 42.17913 | 11.18145 | 38111 ft | 441 kts | 2° |
| 2026-05-04 15:20 | 42.23963 | 11.19508 | 38112 ft | 441 kts | 2° |
| 2026-05-04 15:21 | 42.30005 | 11.20872 | 38113 ft | 440 kts | 2° |
| 2026-05-04 15:22 | 42.39097 | 11.22929 | 38116 ft | 440 kts | 2° |
| 2026-05-04 15:22 | 42.48120 | 11.24976 | 38122 ft | 439 kts | 2° |
| 2026-05-04 15:23 | 42.54143 | 11.26347 | 38109 ft | 438 kts | 2° |
| 2026-05-04 15:23 | 42.60176 | 11.27722 | 38118 ft | 438 kts | 2° |
| 2026-05-04 15:24 | 42.72169 | 11.30464 | 38131 ft | 438 kts | 2° |
| 2026-05-04 15:25 | 42.78202 | 11.31847 | 38131 ft | 438 kts | 2° |
| 2026-05-04 15:26 | 42.87198 | 11.33915 | 38121 ft | 439 kts | 2° |
| 2026-05-04 15:26 | 42.96255 | 11.36002 | 38130 ft | 439 kts | 2° |
| 2026-05-04 15:27 | 43.05278 | 11.38089 | 38121 ft | 440 kts | 2° |
| 2026-05-04 15:28 | 43.14294 | 11.39983 | 38120 ft | 435 kts | 358° |
| 2026-05-04 15:29 | 43.23386 | 11.41395 | 37770 ft | 437 kts | 359° |
| 2026-05-04 15:30 | 43.35502 | 11.43347 | 36323 ft | 441 kts | 0° |
| 2026-05-04 15:30 | 43.44666 | 11.44830 | 35336 ft | 443 kts | 0° |
| 2026-05-04 15:31 | 43.50772 | 11.45820 | 34693 ft | 440 kts | 1° |
| 2026-05-04 15:31 | 43.53816 | 11.46315 | 34387 ft | 439 kts | 1° |
| 2026-05-04 15:32 | 43.62873 | 11.47789 | 33350 ft | 433 kts | 2° |
| 2026-05-04 15:32 | 43.68796 | 11.48756 | 32664 ft | 428 kts | 2° |
| 2026-05-04 15:33 | 43.74689 | 11.49720 | 31987 ft | 424 kts | 2° |
| 2026-05-04 15:34 | 43.83419 | 11.51151 | 30998 ft | 418 kts | 2° |
| 2026-05-04 15:34 | 43.86294 | 11.51624 | 30632 ft | 415 kts | 3° |
| 2026-05-04 15:34 | 43.92016 | 11.52565 | 29870 ft | 411 kts | 3° |
| 2026-05-04 15:35 | 43.97645 | 11.53492 | 29033 ft | 407 kts | 3° |
| 2026-05-04 15:35 | 44.00459 | 11.53994 | 28406 ft | 409 kts | 7° |
| 2026-05-04 15:35 | 44.03243 | 11.54949 | 27718 ft | 414 kts | 15° |
| 2026-05-04 15:36 | 44.08786 | 11.57168 | 26396 ft | 418 kts | 13° |
| 2026-05-04 15:36 | 44.11600 | 11.58257 | 25761 ft | 420 kts | 13° |
| 2026-05-04 15:36 | 44.14431 | 11.59348 | 25141 ft | 422 kts | 13° |
| 2026-05-04 15:37 | 44.17264 | 11.60439 | 24510 ft | 423 kts | 13° |
| 2026-05-04 15:37 | 44.20109 | 11.61535 | 23907 ft | 425 kts | 13° |
| 2026-05-04 15:37 | 44.22964 | 11.62635 | 23242 ft | 426 kts | 13° |
| 2026-05-04 15:37 | 44.24864 | 11.63368 | 22779 ft | 426 kts | 13° |
| 2026-05-04 15:38 | 44.27716 | 11.64470 | 22103 ft | 426 kts | 13° |
| 2026-05-04 15:38 | 44.30572 | 11.65574 | 21439 ft | 425 kts | 13° |
| 2026-05-04 15:38 | 44.33417 | 11.66675 | 20800 ft | 424 kts | 13° |
| 2026-05-04 15:38 | 44.36257 | 11.67774 | 20180 ft | 423 kts | 13° |
| 2026-05-04 15:39 | 44.39089 | 11.68873 | 19586 ft | 421 kts | 13° |
| 2026-05-04 15:39 | 44.41909 | 11.69968 | 19010 ft | 419 kts | 13° |
| 2026-05-04 15:39 | 44.47471 | 11.72131 | 17811 ft | 416 kts | 13° |
| 2026-05-04 15:40 | 44.50255 | 11.73216 | 17164 ft | 414 kts | 14° |
| 2026-05-04 15:40 | 44.53027 | 11.74296 | 16537 ft | 413 kts | 14° |
| 2026-05-04 15:40 | 44.55786 | 11.75372 | 15919 ft | 411 kts | 15° |
| 2026-05-04 15:40 | 44.58550 | 11.76452 | 15308 ft | 410 kts | 15° |
| 2026-05-04 15:41 | 44.61300 | 11.77527 | 14708 ft | 409 kts | 16° |
| 2026-05-04 15:41 | 44.64044 | 11.78601 | 14120 ft | 408 kts | 16° |
| 2026-05-04 15:41 | 44.66738 | 11.79654 | 13505 ft | 407 kts | 16° |
| 2026-05-04 15:41 | 44.69462 | 11.80721 | 12856 ft | 406 kts | 16° |
| 2026-05-04 15:42 | 44.72182 | 11.81787 | 12216 ft | 405 kts | 16° |
| 2026-05-04 15:42 | 44.74900 | 11.82855 | 11591 ft | 404 kts | 15° |
| 2026-05-04 15:42 | 44.77610 | 11.83920 | 10981 ft | 403 kts | 15° |
| 2026-05-04 15:42 | 44.80311 | 11.84984 | 10375 ft | 402 kts | 15° |
| 2026-05-04 15:43 | 44.82964 | 11.86028 | 9798 ft | 389 kts | 15° |
| 2026-05-04 15:43 | 44.85506 | 11.87032 | 9281 ft | 376 kts | 15° |
| 2026-05-04 15:43 | 44.87944 | 11.87994 | 9190 ft | 352 kts | 15° |
| 2026-05-04 15:43 | 44.90223 | 11.88894 | 9177 ft | 328 kts | 15° |
| 2026-05-04 15:44 | 44.92403 | 11.89546 | 9127 ft | 313 kts | 0° |
| 2026-05-04 15:44 | 44.94496 | 11.89084 | 9123 ft | 299 kts | 343° |
| 2026-05-04 15:44 | 44.96508 | 11.88453 | 9103 ft | 296 kts | 347° |
| 2026-05-04 15:44 | 44.98522 | 11.87856 | 9079 ft | 295 kts | 346° |
| 2026-05-04 15:45 | 45.00534 | 11.87244 | 9071 ft | 295 kts | 346° |
| 2026-05-04 15:45 | 45.02542 | 11.86632 | 9075 ft | 295 kts | 346° |
| 2026-05-04 15:45 | 45.04523 | 11.86028 | 9071 ft | 295 kts | 346° |
| 2026-05-04 15:45 | 45.06536 | 11.85409 | 9068 ft | 295 kts | 346° |
| 2026-05-04 15:46 | 45.08536 | 11.84792 | 9069 ft | 294 kts | 346° |
| 2026-05-04 15:46 | 45.10545 | 11.84174 | 9077 ft | 295 kts | 346° |
| 2026-05-04 15:46 | 45.12557 | 11.83555 | 9067 ft | 294 kts | 346° |
| 2026-05-04 15:46 | 45.14536 | 11.82946 | 9074 ft | 295 kts | 346° |
| 2026-05-04 15:47 | 45.16518 | 11.82335 | 9062 ft | 285 kts | 346° |
| 2026-05-04 15:47 | 45.18418 | 11.81749 | 9037 ft | 276 kts | 346° |
| 2026-05-04 15:47 | 45.20302 | 11.81160 | 8718 ft | 278 kts | 346° |
| 2026-05-04 15:47 | 45.22176 | 11.80582 | 8402 ft | 278 kts | 346° |
| 2026-05-04 15:48 | 45.24068 | 11.79996 | 8099 ft | 278 kts | 346° |
| 2026-05-04 15:48 | 45.25966 | 11.79414 | 7849 ft | 277 kts | 346° |
| 2026-05-04 15:48 | 45.29704 | 11.78254 | 7405 ft | 273 kts | 346° |
| 2026-05-04 15:49 | 45.31532 | 11.77686 | 7130 ft | 271 kts | 346° |
| 2026-05-04 15:49 | 45.33364 | 11.77118 | 6912 ft | 267 kts | 346° |
| 2026-05-04 15:49 | 45.35173 | 11.76556 | 6682 ft | 265 kts | 346° |
| 2026-05-04 15:49 | 45.36973 | 11.75999 | 6450 ft | 264 kts | 346° |
| 2026-05-04 15:50 | 45.38763 | 11.75442 | 6197 ft | 263 kts | 346° |
| 2026-05-04 15:50 | 45.40548 | 11.74885 | 5943 ft | 261 kts | 346° |
| 2026-05-04 15:50 | 45.42317 | 11.74334 | 5680 ft | 260 kts | 347° |
| 2026-05-04 15:50 | 45.44092 | 11.73783 | 5444 ft | 260 kts | 347° |
| 2026-05-04 15:51 | 45.45835 | 11.73238 | 5200 ft | 259 kts | 347° |
| 2026-05-04 15:51 | 45.47589 | 11.72694 | 5046 ft | 254 kts | 347° |
| 2026-05-04 15:51 | 45.49325 | 11.72272 | 5030 ft | 249 kts | 359° |
| 2026-05-04 15:51 | 45.50958 | 11.72802 | 5041 ft | 237 kts | 27° |
| 2026-05-04 15:52 | 45.52215 | 11.74260 | 5040 ft | 232 kts | 53° |
| 2026-05-04 15:52 | 45.53006 | 11.76265 | 4973 ft | 232 kts | 68° |
| 2026-05-04 15:52 | 45.53641 | 11.78349 | 4863 ft | 232 kts | 68° |
| 2026-05-04 15:52 | 45.54281 | 11.80467 | 4729 ft | 233 kts | 68° |
| 2026-05-04 15:53 | 45.54936 | 11.82589 | 4564 ft | 232 kts | 68° |
| 2026-05-04 15:53 | 45.55518 | 11.84538 | 4403 ft | 230 kts | 69° |
| 2026-05-04 15:53 | 45.56114 | 11.86637 | 4222 ft | 226 kts | 70° |
| 2026-05-04 15:53 | 45.56682 | 11.88709 | 4060 ft | 221 kts | 70° |
| 2026-05-04 15:54 | 45.57218 | 11.90702 | 3906 ft | 215 kts | 70° |
| 2026-05-04 15:54 | 45.57749 | 11.92686 | 3681 ft | 213 kts | 70° |
| 2026-05-04 15:54 | 45.58276 | 11.94658 | 3417 ft | 211 kts | 70° |
| 2026-05-04 15:54 | 45.58799 | 11.96612 | 3182 ft | 209 kts | 71° |
| 2026-05-04 15:55 | 45.59312 | 11.98544 | 2928 ft | 208 kts | 71° |
| 2026-05-04 15:55 | 45.59822 | 12.00473 | 2688 ft | 206 kts | 71° |
| 2026-05-04 15:55 | 45.60325 | 12.02371 | 2444 ft | 204 kts | 70° |
| 2026-05-04 15:55 | 45.60828 | 12.04271 | 2150 ft | 205 kts | 71° |
| 2026-05-04 15:56 | 45.61335 | 12.06174 | 1874 ft | 204 kts | 71° |
| 2026-05-04 15:56 | 45.61822 | 12.08003 | 1574 ft | 190 kts | 71° |
| 2026-05-04 15:56 | 45.62271 | 12.09699 | 1373 ft | 175 kts | 72° |
| 2026-05-04 15:56 | 45.62690 | 12.11278 | 1128 ft | 167 kts | 72° |
| 2026-05-04 15:57 | 45.63094 | 12.12799 | 881 ft | 161 kts | 73° |
| 2026-05-04 15:57 | 45.63487 | 12.14281 | 662 ft | 157 kts | 74° |
| 2026-05-04 15:57 | 45.63861 | 12.15691 | 462 ft | 148 kts | 73° |
| 2026-05-04 15:57 | 45.64227 | 12.17044 | 245 ft | 143 kts | 73° |
| 2026-05-04 15:58 | 45.64573 | 12.18351 | 91 ft | 137 kts | 74° |
| 2026-05-04 15:58 | 45.64870 | 12.19515 | 65 ft | 110 kts | 68° |
| 2026-05-04 15:58 | 45.65072 | 12.20158 | 65 ft | 45 kts | 47° |
| 2026-05-04 15:58 | 45.65223 | 12.20283 | 61 ft | 19 kts | 26° |
| 2026-05-04 15:59 | 45.65279 | 12.20336 | 63 ft | 5 kts | 40° |
| 2026-05-04 15:59 | 45.65303 | 12.20387 | 61 ft | 3 kts | 68° |
| 2026-05-04 15:59 | 45.65316 | 12.20433 | 60 ft | 7 kts | 68° |
| 2026-05-04 15:59 | 45.65337 | 12.20509 | 62 ft | 10 kts | 69° |
| 2026-05-04 16:00 | 45.65358 | 12.20560 | 62 ft | 4 kts | 22° |
| 2026-05-04 16:00 | 45.65391 | 12.20549 | 64 ft | 6 kts | 339° |
| 2026-05-04 16:00 | 45.65406 | 12.20541 | 58 ft | 2 kts | 339° |
| 2026-05-04 16:00 | 45.65407 | 12.20540 | 58 ft | 0 kts | 339° |